createdAt,value
2023-06-27T00:00:23.414Z,35.05
2023-06-27T00:01:23.544Z,35.04
2023-06-27T00:02:23.569Z,35.05
2023-06-27T00:03:24.039Z,35.08
2023-06-27T00:04:23.616Z,35.12
2023-06-27T00:05:23.664Z,35.08
2023-06-27T00:06:23.710Z,35.13
2023-06-27T00:07:23.803Z,35.11
2023-06-27T00:08:23.830Z,35.10
2023-06-27T00:09:23.872Z,35.10
2023-06-27T00:10:23.957Z,35.10
2023-06-27T00:11:23.954Z,35.11
2023-06-27T00:12:24.011Z,35.08
2023-06-27T00:13:24.060Z,35.09
2023-06-27T00:14:24.107Z,35.13
2023-06-27T00:15:24.148Z,35.16
2023-06-27T00:16:24.196Z,35.09
2023-06-27T00:17:24.255Z,35.10
2023-06-27T00:18:24.291Z,35.10
2023-06-27T00:19:24.364Z,35.13
2023-06-27T00:20:24.380Z,35.13
2023-06-27T00:21:24.430Z,35.11
2023-06-27T00:22:24.482Z,35.16
2023-06-27T00:23:24.533Z,35.13
2023-06-27T00:24:24.579Z,35.15
2023-06-27T00:25:24.621Z,35.11
2023-06-27T00:26:24.684Z,35.16
2023-06-27T00:27:24.726Z,35.14
2023-06-27T00:28:24.762Z,35.09
2023-06-27T00:29:24.809Z,35.12
2023-06-27T00:30:25.437Z,35.12
2023-06-27T00:31:24.961Z,35.10
2023-06-27T00:32:24.973Z,35.09
2023-06-27T00:33:25.013Z,35.13
2023-06-27T00:34:25.073Z,35.11
2023-06-27T00:35:25.110Z,35.10
2023-06-27T00:36:25.173Z,35.07
2023-06-27T00:37:25.200Z,35.11
2023-06-27T00:38:25.259Z,35.14
2023-06-27T00:39:25.321Z,35.13
2023-06-27T00:40:25.366Z,35.13
2023-06-27T00:41:25.426Z,35.12
2023-06-27T00:42:25.471Z,35.10
2023-06-27T00:43:25.518Z,35.09
2023-06-27T00:44:25.564Z,35.10
2023-06-27T00:45:25.624Z,35.11
2023-06-27T00:46:25.670Z,35.12
2023-06-27T00:47:25.741Z,35.11
2023-06-27T00:48:25.770Z,35.12
2023-06-27T00:49:25.824Z,35.11
2023-06-27T00:50:25.866Z,35.12
2023-06-27T00:51:25.925Z,35.12
2023-06-27T00:52:25.954Z,35.12
2023-06-27T00:53:26.032Z,35.11
2023-06-27T00:54:26.076Z,35.13
2023-06-27T00:55:26.120Z,35.12
2023-06-27T00:56:26.180Z,35.15
2023-06-27T00:57:26.244Z,35.14
2023-06-27T00:58:26.321Z,35.11
2023-06-27T00:59:26.349Z,35.12
2023-06-27T01:00:26.385Z,35.10
2023-06-27T01:01:26.449Z,35.12
2023-06-27T01:02:26.539Z,35.15
2023-06-27T01:03:26.622Z,35.12
2023-06-27T01:04:27.433Z,35.13
2023-06-27T01:05:26.647Z,35.13
2023-06-27T01:06:26.699Z,35.14
2023-06-27T01:07:26.859Z,35.14
2023-06-27T01:08:26.800Z,35.14
2023-06-27T01:09:26.854Z,35.11
2023-06-27T01:10:26.890Z,35.14
2023-06-27T01:11:26.948Z,35.15
2023-06-27T01:12:26.994Z,35.12
2023-06-27T01:13:27.056Z,35.13
2023-06-27T01:14:27.106Z,35.09
2023-06-27T01:15:27.156Z,35.12
2023-06-27T01:16:27.218Z,35.14
2023-06-27T01:17:27.293Z,35.16
2023-06-27T01:18:27.332Z,35.15
2023-06-27T01:19:27.393Z,35.19
2023-06-27T01:20:27.428Z,35.17
2023-06-27T01:21:27.478Z,35.19
2023-06-27T01:22:27.535Z,35.16
2023-06-27T01:23:27.590Z,35.16
2023-06-27T01:24:27.770Z,35.21
2023-06-27T01:25:27.707Z,35.15
2023-06-27T01:26:27.753Z,35.13
2023-06-27T01:27:27.805Z,35.16
2023-06-27T01:28:27.867Z,35.18
2023-06-27T01:29:27.919Z,35.16
2023-06-27T01:30:27.990Z,35.18
2023-06-27T01:31:28.053Z,35.15
2023-06-27T01:32:28.147Z,35.16
2023-06-27T01:33:28.138Z,35.17
2023-06-27T01:34:28.196Z,35.18
2023-06-27T01:35:28.266Z,35.16
2023-06-27T01:36:28.312Z,35.17
2023-06-27T01:37:28.370Z,35.19
2023-06-27T01:38:28.409Z,35.20
2023-06-27T01:39:28.462Z,35.19
2023-06-27T01:40:28.526Z,35.19
2023-06-27T01:41:28.589Z,35.20
2023-06-27T01:42:28.635Z,35.21
2023-06-27T01:43:28.699Z,35.20
2023-06-27T01:44:28.756Z,35.17
2023-06-27T01:45:28.804Z,35.17
2023-06-27T01:46:29.009Z,35.20
2023-06-27T01:47:28.937Z,35.19
2023-06-27T01:48:28.968Z,35.19
2023-06-27T01:49:29.017Z,35.18
2023-06-27T01:50:29.085Z,35.19
2023-06-27T01:51:29.469Z,35.20
2023-06-27T01:52:29.184Z,35.21
2023-06-27T01:53:29.297Z,35.20
2023-06-27T01:54:29.332Z,35.19
2023-06-27T01:55:29.346Z,35.19
2023-06-27T01:56:29.392Z,35.22
2023-06-27T01:57:29.450Z,35.22
2023-06-27T01:58:29.500Z,35.21
2023-06-27T01:59:29.550Z,35.21
2023-06-27T02:00:29.623Z,35.19
2023-06-27T02:01:29.714Z,35.22
2023-06-27T02:02:29.797Z,35.25
2023-06-27T02:03:29.775Z,35.25
2023-06-27T02:04:29.790Z,35.25
2023-06-27T02:05:29.856Z,35.23
2023-06-27T02:06:29.895Z,35.25
2023-06-27T02:07:29.982Z,35.25
2023-06-27T02:08:30.001Z,35.26
2023-06-27T02:09:30.056Z,35.24
2023-06-27T02:10:30.108Z,35.26
2023-06-27T02:11:30.164Z,35.26
2023-06-27T02:12:30.202Z,35.27
2023-06-27T02:13:30.279Z,35.28
2023-06-27T02:14:30.310Z,35.26
2023-06-27T02:15:30.375Z,35.26
2023-06-27T02:16:30.434Z,35.28
2023-06-27T02:17:30.501Z,35.28
2023-06-27T02:18:30.524Z,35.26
2023-06-27T02:19:30.573Z,35.25
2023-06-27T02:20:30.632Z,35.29
2023-06-27T02:21:30.678Z,35.29
2023-06-27T02:22:30.742Z,35.29
2023-06-27T02:23:30.787Z,35.29
2023-06-27T02:24:30.837Z,35.30
2023-06-27T02:25:30.893Z,35.31
2023-06-27T02:26:30.970Z,35.26
2023-06-27T02:27:30.987Z,35.31
2023-06-27T02:28:31.065Z,35.28
2023-06-27T02:29:31.104Z,35.28
2023-06-27T02:30:31.163Z,35.29
2023-06-27T02:31:31.280Z,35.28
2023-06-27T02:32:31.284Z,35.29
2023-06-27T02:33:31.365Z,35.28
2023-06-27T02:34:31.368Z,35.31
2023-06-27T02:35:31.428Z,35.28
2023-06-27T02:36:31.483Z,35.30
2023-06-27T02:37:31.534Z,35.31
2023-06-27T02:38:31.586Z,35.31
2023-06-27T02:39:31.663Z,35.30
2023-06-27T02:40:31.678Z,35.32
2023-06-27T02:41:31.734Z,35.30
2023-06-27T02:42:31.777Z,35.30
2023-06-27T02:43:31.825Z,35.29
2023-06-27T02:44:31.879Z,35.32
2023-06-27T02:45:31.923Z,35.33
2023-06-27T02:46:32.029Z,35.32
2023-06-27T02:47:32.048Z,35.29
2023-06-27T02:48:32.101Z,35.30
2023-06-27T02:49:32.166Z,35.29
2023-06-27T02:50:32.211Z,35.32
2023-06-27T02:51:32.285Z,35.33
2023-06-27T02:52:32.332Z,35.34
2023-06-27T02:53:32.399Z,35.33
2023-06-27T02:54:32.448Z,35.32
2023-06-27T02:55:32.513Z,35.33
2023-06-27T02:56:32.603Z,35.34
2023-06-27T02:57:32.632Z,35.35
2023-06-27T02:58:32.998Z,35.31
2023-06-27T02:59:32.762Z,35.32
2023-06-27T03:00:32.817Z,35.31
2023-06-27T03:01:32.986Z,35.31
2023-06-27T03:02:33.090Z,35.32
2023-06-27T03:03:34.717Z,35.30
2023-06-27T03:04:33.173Z,35.30
2023-06-27T03:05:33.103Z,35.33
2023-06-27T03:06:33.165Z,35.33
2023-06-27T03:07:33.297Z,35.32
2023-06-27T03:08:33.274Z,35.34
2023-06-27T03:09:33.319Z,35.35
2023-06-27T03:10:33.389Z,35.33
2023-06-27T03:11:33.451Z,35.34
2023-06-27T03:12:33.497Z,35.35
2023-06-27T03:13:33.540Z,35.34
2023-06-27T03:14:33.613Z,35.33
2023-06-27T03:15:33.666Z,35.31
2023-06-27T03:16:33.747Z,35.34
2023-06-27T03:17:33.910Z,35.35
2023-06-27T03:18:33.857Z,35.33
2023-06-27T03:19:43.791Z,35.35
2023-06-27T03:20:34.915Z,35.35
2023-06-27T03:21:33.913Z,35.34
2023-06-27T03:22:33.942Z,35.34
2023-06-27T03:23:33.895Z,35.34
2023-06-27T03:24:33.903Z,35.38
2023-06-27T03:25:33.865Z,35.32
2023-06-27T03:26:33.868Z,35.33
2023-06-27T03:27:33.857Z,35.32
2023-06-27T03:28:33.899Z,35.34
2023-06-27T03:29:33.958Z,35.35
2023-06-27T03:30:34.014Z,35.37
2023-06-27T03:31:34.085Z,35.36
2023-06-27T03:32:34.166Z,35.35
2023-06-27T03:33:34.182Z,35.35
2023-06-27T03:34:34.242Z,35.35
2023-06-27T03:35:34.324Z,35.38
2023-06-27T03:36:34.382Z,35.37
2023-06-27T03:37:34.411Z,35.34
2023-06-27T03:38:34.462Z,35.37
2023-06-27T03:39:34.525Z,35.36
2023-06-27T03:40:34.618Z,35.37
2023-06-27T03:41:34.659Z,35.35
2023-06-27T03:42:34.738Z,35.38
2023-06-27T03:43:34.804Z,35.37
2023-06-27T03:44:34.846Z,35.35
2023-06-27T03:45:34.896Z,35.35
2023-06-27T03:46:34.972Z,35.36
2023-06-27T03:47:35.028Z,35.37
2023-06-27T03:48:35.074Z,35.35
2023-06-27T03:49:35.125Z,35.37
2023-06-27T03:50:35.189Z,35.34
2023-06-27T03:51:35.237Z,35.38
2023-06-27T03:52:35.378Z,35.36
2023-06-27T03:53:35.365Z,35.38
2023-06-27T03:54:35.420Z,35.37
2023-06-27T03:55:35.482Z,35.36
2023-06-27T03:56:36.526Z,35.37
2023-06-27T03:57:35.604Z,35.38
2023-06-27T03:58:35.663Z,35.36
2023-06-27T03:59:35.711Z,35.37
2023-06-27T04:00:35.773Z,35.38
2023-06-27T04:01:35.839Z,35.39
2023-06-27T04:02:35.899Z,35.37
2023-06-27T04:03:36.083Z,35.38
2023-06-27T04:04:36.125Z,35.36
2023-06-27T04:05:36.061Z,35.38
2023-06-27T04:06:36.130Z,35.37
2023-06-27T04:07:36.247Z,35.38
2023-06-27T04:08:36.526Z,35.36
2023-06-27T04:09:36.305Z,35.37
2023-06-27T04:10:36.369Z,35.36
2023-06-27T04:11:36.427Z,35.38
2023-06-27T04:12:36.502Z,35.40
2023-06-27T04:13:36.550Z,35.39
2023-06-27T04:14:36.603Z,35.39
2023-06-27T04:15:36.648Z,35.39
2023-06-27T04:16:36.740Z,35.39
2023-06-27T04:17:36.825Z,35.38
2023-06-27T04:18:36.832Z,35.40
2023-06-27T04:19:36.915Z,35.37
2023-06-27T04:20:36.940Z,35.39
2023-06-27T04:21:37.014Z,35.37
2023-06-27T04:22:37.076Z,35.38
2023-06-27T04:23:37.122Z,35.38
2023-06-27T04:24:37.149Z,35.37
2023-06-27T04:25:37.247Z,35.41
2023-06-27T04:26:37.284Z,35.39
2023-06-27T04:27:37.390Z,35.40
2023-06-27T04:28:37.435Z,35.39
2023-06-27T04:29:37.507Z,35.38
2023-06-27T04:30:37.579Z,35.40
2023-06-27T04:31:37.707Z,35.39
2023-06-27T04:32:37.773Z,35.39
2023-06-27T04:33:37.780Z,35.40
2023-06-27T04:34:37.924Z,35.37
2023-06-27T04:35:37.977Z,35.39
2023-06-27T04:36:37.982Z,35.37
2023-06-27T04:37:38.047Z,35.37
2023-06-27T04:38:38.117Z,35.37
2023-06-27T04:39:38.206Z,35.38
2023-06-27T04:40:38.244Z,35.39
2023-06-27T04:41:38.321Z,35.39
2023-06-27T04:42:38.356Z,35.39
2023-06-27T04:43:38.428Z,35.37
2023-06-27T04:44:38.487Z,35.37
2023-06-27T04:45:38.687Z,35.37
2023-06-27T04:46:38.609Z,35.40
2023-06-27T04:47:38.682Z,35.40
2023-06-27T04:48:38.750Z,35.38
2023-06-27T04:49:38.796Z,35.39
2023-06-27T04:50:38.876Z,35.39
2023-06-27T04:51:38.920Z,35.40
2023-06-27T04:52:38.978Z,35.38
2023-06-27T04:53:39.051Z,35.38
2023-06-27T04:54:39.115Z,35.36
2023-06-27T04:55:39.430Z,35.39
2023-06-27T04:56:39.232Z,35.37
2023-06-27T04:57:39.292Z,35.38
2023-06-27T04:58:39.351Z,35.40
2023-06-27T04:59:39.467Z,35.36
2023-06-27T05:00:39.484Z,35.39
2023-06-27T05:01:39.548Z,35.35
2023-06-27T05:02:48.966Z,35.42
2023-06-27T05:03:40.597Z,35.39
2023-06-27T05:04:39.622Z,35.40
2023-06-27T05:05:39.796Z,35.41
2023-06-27T05:06:39.563Z,35.39
2023-06-27T05:07:39.558Z,35.39
2023-06-27T05:08:39.626Z,35.41
2023-06-27T05:09:39.541Z,35.38
2023-06-27T05:10:39.541Z,35.41
2023-06-27T05:11:39.643Z,35.41
2023-06-27T05:12:39.616Z,35.40
2023-06-27T05:13:39.677Z,35.40
2023-06-27T05:14:39.723Z,35.41
2023-06-27T05:15:40.028Z,35.41
2023-06-27T05:16:39.829Z,35.41
2023-06-27T05:17:39.902Z,35.49
2023-06-27T05:18:39.918Z,35.43
2023-06-27T05:19:39.972Z,35.86
2023-06-27T05:20:39.981Z,36.01
2023-06-27T05:21:40.986Z,35.51
2023-06-27T05:22:39.977Z,35.35
2023-06-27T05:23:39.970Z,35.37
2023-06-27T05:24:39.967Z,34.89
2023-06-27T05:25:40.276Z,35.05
2023-06-27T05:26:39.942Z,35.19
2023-06-27T05:27:39.945Z,34.60
2023-06-27T05:28:39.938Z,34.21
2023-06-27T05:29:39.979Z,33.81
2023-06-27T05:30:39.950Z,34.52
2023-06-27T05:31:39.911Z,34.50
2023-06-27T05:32:39.926Z,34.81
2023-06-27T05:33:39.995Z,34.90
2023-06-27T05:34:40.002Z,34.88
2023-06-27T05:35:40.352Z,34.89
2023-06-27T05:36:40.126Z,35.01
2023-06-27T05:37:40.215Z,34.87
2023-06-27T05:38:40.247Z,35.27
2023-06-27T05:39:40.311Z,35.47
2023-06-27T05:40:40.347Z,34.94
2023-06-27T05:41:40.396Z,35.13
2023-06-27T05:42:40.509Z,35.24
2023-06-27T05:43:40.583Z,35.39
2023-06-27T05:44:40.547Z,35.31
2023-06-27T05:45:40.809Z,35.48
2023-06-27T05:46:40.625Z,35.49
2023-06-27T05:47:40.699Z,35.20
2023-06-27T05:48:41.597Z,35.40
2023-06-27T05:49:40.675Z,35.00
2023-06-27T05:50:40.680Z,35.08
2023-06-27T05:51:40.706Z,35.13
2023-06-27T05:52:40.768Z,35.06
2023-06-27T05:53:40.703Z,35.18
2023-06-27T05:54:41.779Z,35.46
2023-06-27T05:55:40.894Z,35.45
2023-06-27T05:56:40.679Z,35.26
2023-06-27T05:57:40.733Z,34.92
2023-06-27T05:58:40.905Z,35.24
2023-06-27T05:59:40.719Z,35.13
2023-06-27T06:00:40.634Z,34.87
2023-06-27T06:01:40.763Z,35.03
2023-06-27T06:02:41.248Z,34.81
2023-06-27T06:03:40.697Z,35.23
2023-06-27T06:04:40.622Z,34.93
2023-06-27T06:05:40.936Z,34.81
2023-06-27T06:06:40.644Z,35.13
2023-06-27T06:07:40.605Z,34.88
2023-06-27T06:08:40.604Z,35.07
2023-06-27T06:09:40.617Z,34.84
2023-06-27T06:10:40.586Z,34.80
2023-06-27T06:11:40.732Z,34.94
2023-06-27T06:12:40.685Z,35.31
2023-06-27T06:13:40.714Z,34.97
2023-06-27T06:14:40.719Z,34.72
2023-06-27T06:15:40.958Z,34.65
2023-06-27T06:16:40.873Z,34.96
2023-06-27T06:17:40.916Z,34.81
2023-06-27T06:18:41.022Z,35.32
2023-06-27T06:19:41.046Z,34.61
2023-06-27T06:20:41.070Z,34.69
2023-06-27T06:21:41.089Z,34.67
2023-06-27T06:22:41.100Z,34.40
2023-06-27T06:23:41.248Z,34.18
2023-06-27T06:24:41.161Z,33.92
2023-06-27T06:25:41.406Z,33.84
2023-06-27T06:26:41.230Z,33.93
2023-06-27T06:27:41.258Z,33.61
2023-06-27T06:28:41.301Z,33.58
2023-06-27T06:29:41.331Z,33.44
2023-06-27T06:30:41.372Z,33.34
2023-06-27T06:31:41.426Z,33.17
2023-06-27T06:32:41.508Z,33.16
2023-06-27T06:33:41.478Z,32.95
2023-06-27T06:34:41.519Z,32.95
2023-06-27T06:35:41.725Z,32.90
2023-06-27T06:36:41.602Z,32.79
2023-06-27T06:37:41.687Z,32.85
2023-06-27T06:38:41.709Z,32.77
2023-06-27T06:39:41.756Z,32.83
2023-06-27T06:40:41.806Z,32.89
2023-06-27T06:41:41.870Z,32.92
2023-06-27T06:42:41.913Z,32.91
2023-06-27T06:43:41.956Z,32.71
2023-06-27T06:44:42.048Z,32.76
2023-06-27T06:45:42.287Z,32.72
2023-06-27T06:46:42.662Z,32.67
2023-06-27T06:47:42.196Z,32.67
2023-06-27T06:48:42.185Z,32.59
2023-06-27T06:49:42.244Z,32.65
2023-06-27T06:50:42.289Z,32.66
2023-06-27T06:51:43.087Z,32.66
2023-06-27T06:52:42.489Z,32.69
2023-06-27T06:53:42.510Z,32.60
2023-06-27T06:54:42.511Z,32.56
2023-06-27T06:55:42.827Z,32.59
2023-06-27T06:56:42.640Z,32.57
2023-06-27T06:57:42.665Z,32.60
2023-06-27T06:58:42.731Z,32.57
2023-06-27T06:59:42.795Z,32.52
2023-06-27T07:00:42.845Z,32.36
2023-06-27T07:01:42.958Z,32.41
2023-06-27T07:02:42.955Z,32.46
2023-06-27T07:03:42.983Z,32.45
2023-06-27T07:04:43.129Z,32.45
2023-06-27T07:05:43.708Z,32.42
2023-06-27T07:06:43.169Z,32.26
2023-06-27T07:07:43.228Z,32.31
2023-06-27T07:08:43.289Z,32.36
2023-06-27T07:09:43.325Z,32.43
2023-06-27T07:10:43.359Z,32.36
2023-06-27T07:11:43.443Z,32.34
2023-06-27T07:12:43.477Z,32.34
2023-06-27T07:13:43.640Z,32.36
2023-06-27T07:14:43.577Z,32.33
2023-06-27T07:15:43.670Z,32.32
2023-06-27T07:16:43.672Z,32.38
2023-06-27T07:17:43.793Z,32.39
2023-06-27T07:18:43.805Z,32.52
2023-06-27T07:19:43.838Z,33.18
2023-06-27T07:20:43.899Z,33.39
2023-06-27T07:21:44.048Z,33.81
2023-06-27T07:22:44.007Z,33.51
2023-06-27T07:23:44.134Z,33.10
2023-06-27T07:24:44.133Z,33.13
2023-06-27T07:25:44.161Z,32.78
2023-06-27T07:26:44.194Z,32.99
2023-06-27T07:27:44.237Z,32.80
2023-06-27T07:28:44.271Z,32.83
2023-06-27T07:29:45.267Z,32.94
2023-06-27T07:30:44.384Z,32.75
2023-06-27T07:31:44.354Z,32.75
2023-06-27T07:32:44.332Z,32.98
2023-06-27T07:33:44.241Z,32.91
2023-06-27T07:34:44.273Z,33.10
2023-06-27T07:35:44.290Z,33.21
2023-06-27T07:36:44.296Z,33.06
2023-06-27T07:37:44.212Z,33.03
2023-06-27T07:38:44.212Z,33.04
2023-06-27T07:39:44.200Z,33.11
2023-06-27T07:40:44.202Z,33.32
2023-06-27T07:41:44.192Z,33.54
2023-06-27T07:42:44.182Z,33.55
2023-06-27T07:43:44.175Z,33.63
2023-06-27T07:44:44.178Z,33.44
2023-06-27T07:45:44.168Z,33.59
2023-06-27T07:46:44.148Z,33.65
2023-06-27T07:47:44.189Z,33.68
2023-06-27T07:48:44.152Z,33.61
2023-06-27T07:49:44.221Z,33.70
2023-06-27T07:50:44.256Z,33.52
2023-06-27T07:51:44.327Z,33.47
2023-06-27T07:52:44.375Z,33.31
2023-06-27T07:53:44.440Z,33.24
2023-06-27T07:54:44.490Z,33.39
2023-06-27T07:55:44.551Z,33.45
2023-06-27T07:56:45.119Z,33.38
2023-06-27T07:57:44.647Z,33.60
2023-06-27T07:58:44.716Z,33.48
2023-06-27T07:59:44.770Z,33.39
2023-06-27T08:00:44.823Z,33.32
2023-06-27T08:01:44.943Z,33.58
2023-06-27T08:02:44.999Z,33.46
2023-06-27T08:03:44.987Z,33.51
2023-06-27T08:04:45.010Z,33.68
2023-06-27T08:05:45.073Z,33.55
2023-06-27T08:06:45.225Z,33.25
2023-06-27T08:07:45.141Z,33.54
2023-06-27T08:08:45.202Z,33.79
2023-06-27T08:09:45.238Z,33.78
2023-06-27T08:10:45.262Z,34.35
2023-06-27T08:11:45.298Z,33.86
2023-06-27T08:12:45.347Z,33.91
2023-06-27T08:13:45.395Z,33.32
2023-06-27T08:14:45.484Z,33.78
2023-06-27T08:15:45.474Z,33.89
2023-06-27T08:16:45.519Z,33.29
2023-06-27T08:17:45.644Z,33.70
2023-06-27T08:18:45.616Z,33.34
2023-06-27T08:19:45.665Z,33.38
2023-06-27T08:20:45.805Z,33.40
2023-06-27T08:21:45.771Z,33.52
2023-06-27T08:22:45.824Z,33.72
2023-06-27T08:23:45.882Z,33.78
2023-06-27T08:24:45.929Z,33.33
2023-06-27T08:25:45.978Z,33.60
2023-06-27T08:26:46.039Z,33.45
2023-06-27T08:27:46.093Z,33.72
2023-06-27T08:28:46.160Z,33.73
2023-06-27T08:29:46.123Z,33.50
2023-06-27T08:30:46.168Z,33.83
2023-06-27T08:31:46.206Z,33.83
2023-06-27T08:32:46.215Z,33.88
2023-06-27T08:33:46.193Z,34.25
2023-06-27T08:34:47.172Z,34.48
2023-06-27T08:35:46.193Z,34.56
2023-06-27T08:36:47.322Z,34.60
2023-06-27T08:37:46.267Z,34.76
2023-06-27T08:38:46.333Z,34.84
2023-06-27T08:39:46.398Z,35.00
2023-06-27T08:40:46.445Z,35.10
2023-06-27T08:41:46.500Z,35.28
2023-06-27T08:42:46.536Z,35.30
2023-06-27T08:43:46.566Z,35.41
2023-06-27T08:44:46.643Z,35.45
2023-06-27T08:45:46.656Z,35.54
2023-06-27T08:46:46.685Z,35.70
2023-06-27T08:47:46.737Z,35.69
2023-06-27T08:48:46.743Z,35.90
2023-06-27T08:49:46.770Z,35.91
2023-06-27T08:50:46.805Z,36.06
2023-06-27T08:51:46.801Z,36.05
2023-06-27T08:52:46.911Z,36.15
2023-06-27T08:53:46.844Z,36.21
2023-06-27T08:54:46.844Z,36.20
2023-06-27T08:55:46.906Z,36.22
2023-06-27T08:56:46.860Z,36.25
2023-06-27T08:57:46.991Z,36.27
2023-06-27T08:58:46.878Z,36.36
2023-06-27T08:59:46.927Z,36.31
2023-06-27T09:00:46.865Z,36.47
2023-06-27T09:01:46.888Z,36.55
2023-06-27T09:02:46.952Z,36.53
2023-06-27T09:03:47.002Z,36.26
2023-06-27T09:04:47.008Z,36.22
2023-06-27T09:05:46.944Z,36.55
2023-06-27T09:06:46.965Z,37.67
2023-06-27T09:07:47.018Z,38.22
2023-06-27T09:08:47.067Z,37.95
2023-06-27T09:09:47.088Z,37.28
2023-06-27T09:10:47.140Z,37.85
2023-06-27T09:11:47.197Z,37.73
2023-06-27T09:12:47.259Z,37.55
2023-06-27T09:13:47.315Z,38.11
2023-06-27T09:14:47.373Z,36.28
2023-06-27T09:15:48.173Z,37.59
2023-06-27T09:16:47.508Z,37.63
2023-06-27T09:17:47.439Z,36.47
2023-06-27T09:18:47.419Z,35.35
2023-06-27T09:19:47.425Z,34.73
2023-06-27T09:20:47.451Z,34.01
2023-06-27T09:21:47.451Z,33.30
2023-06-27T09:22:47.475Z,33.11
2023-06-27T09:23:47.469Z,33.41
2023-06-27T09:24:47.492Z,33.47
2023-06-27T09:25:47.487Z,33.55
2023-06-27T09:26:47.488Z,34.02
2023-06-27T09:27:49.144Z,34.34
2023-06-27T09:28:47.519Z,34.69
2023-06-27T09:29:47.556Z,35.00
2023-06-27T09:30:47.524Z,35.15
2023-06-27T09:31:47.576Z,35.26
2023-06-27T09:32:47.612Z,35.42
2023-06-27T09:33:47.566Z,35.64
2023-06-27T09:34:47.566Z,35.74
2023-06-27T09:38:49.638Z,36.40
2023-06-27T09:39:47.567Z,36.44
2023-06-27T09:40:47.545Z,36.66
2023-06-27T09:41:47.608Z,37.31
2023-06-27T09:42:47.531Z,37.27
2023-06-27T09:43:47.543Z,37.86
2023-06-27T09:44:48.626Z,37.75
2023-06-27T09:45:47.867Z,38.38
2023-06-27T09:46:47.818Z,38.40
2023-06-27T09:47:47.885Z,38.50
2023-06-27T09:48:47.954Z,38.77
2023-06-27T09:49:48.590Z,38.55
2023-06-27T09:50:48.047Z,38.83
2023-06-27T09:51:48.092Z,39.60
2023-06-27T09:52:48.141Z,39.80
2023-06-27T09:53:48.199Z,39.90
2023-06-27T09:54:48.232Z,39.68
2023-06-27T09:55:48.279Z,39.18
2023-06-27T09:56:48.312Z,39.19
2023-06-27T09:57:48.364Z,39.96
2023-06-27T09:58:48.396Z,39.87
2023-06-27T09:59:48.430Z,40.69
2023-06-27T10:00:48.463Z,40.89
2023-06-27T10:01:49.270Z,40.92
2023-06-27T10:02:48.602Z,41.00
2023-06-27T10:03:48.628Z,40.17
2023-06-27T10:04:48.765Z,40.50
2023-06-27T10:05:59.067Z,40.51
2023-06-27T10:06:49.761Z,39.99
2023-06-27T10:07:49.217Z,40.14
2023-06-27T10:08:48.642Z,40.61
2023-06-27T10:09:48.634Z,40.66
2023-06-27T10:10:48.623Z,40.88
2023-06-27T10:11:48.612Z,40.89
2023-06-27T10:12:48.614Z,40.97
2023-06-27T10:13:48.604Z,40.88
2023-06-27T10:14:48.594Z,40.91
2023-06-27T10:15:48.590Z,40.94
2023-06-27T10:16:48.588Z,40.89
2023-06-27T10:17:48.765Z,40.91
2023-06-27T10:18:48.576Z,40.84
2023-06-27T10:19:48.567Z,40.78
2023-06-27T10:20:48.594Z,40.73
2023-06-27T10:21:48.664Z,40.63
2023-06-27T10:22:48.718Z,40.53
2023-06-27T10:23:48.766Z,40.49
2023-06-27T10:24:48.823Z,40.45
2023-06-27T10:25:48.872Z,40.51
2023-06-27T10:26:48.934Z,40.38
2023-06-27T10:27:48.995Z,40.47
2023-06-27T10:28:49.045Z,40.50
2023-06-27T10:29:49.167Z,40.52
2023-06-27T10:30:49.288Z,40.58
2023-06-27T10:31:49.222Z,40.53
2023-06-27T10:32:49.307Z,40.42
2023-06-27T10:33:49.273Z,40.42
2023-06-27T10:34:49.277Z,40.49
2023-06-27T10:35:49.779Z,40.57
2023-06-27T10:36:49.328Z,40.46
2023-06-27T10:37:49.357Z,40.49
2023-06-27T10:38:49.380Z,40.50
2023-06-27T10:39:49.400Z,40.50
2023-06-27T10:40:49.416Z,40.44
2023-06-27T10:41:49.415Z,40.46
2023-06-27T10:42:49.429Z,40.37
2023-06-27T10:43:49.482Z,40.44
2023-06-27T10:44:49.446Z,40.46
2023-06-27T10:45:49.448Z,40.49
2023-06-27T10:46:49.470Z,40.43
2023-06-27T10:47:49.586Z,40.47
2023-06-27T10:48:49.502Z,40.36
2023-06-27T10:49:49.485Z,40.41
2023-06-27T10:50:49.505Z,40.40
2023-06-27T10:51:49.497Z,40.36
2023-06-27T10:52:49.509Z,40.38
2023-06-27T10:53:49.497Z,40.40
2023-06-27T10:54:49.592Z,40.44
2023-06-27T10:55:49.525Z,40.42
2023-06-27T10:56:49.548Z,40.43
2023-06-27T10:57:49.535Z,40.38
2023-06-27T10:58:49.605Z,40.36
2023-06-27T10:59:49.578Z,40.48
2023-06-27T11:00:49.572Z,40.41
2023-06-27T11:01:49.574Z,40.28
2023-06-27T11:02:49.802Z,40.41
2023-06-27T11:03:49.705Z,40.45
2023-06-27T11:04:49.747Z,40.37
2023-06-27T11:05:49.611Z,40.40
2023-06-27T11:06:49.603Z,40.49
2023-06-27T11:07:49.639Z,40.52
2023-06-27T11:08:49.612Z,40.49
2023-06-27T11:09:49.626Z,40.30
2023-06-27T11:10:49.636Z,40.35
2023-06-27T11:11:49.658Z,40.45
2023-06-27T11:12:49.657Z,40.40
2023-06-27T11:13:49.656Z,40.39
2023-06-27T11:14:49.668Z,40.43
2023-06-27T11:15:49.664Z,40.35
2023-06-27T11:16:49.728Z,40.35
2023-06-27T11:17:49.719Z,40.42
2023-06-27T11:18:49.675Z,40.36
2023-06-27T11:19:49.692Z,40.32
2023-06-27T11:20:49.691Z,40.36
2023-06-27T11:21:49.716Z,40.35
2023-06-27T11:22:49.721Z,40.34
2023-06-27T11:23:49.740Z,40.35
2023-06-27T11:24:49.772Z,40.37
2023-06-27T11:25:49.780Z,40.35
2023-06-27T11:26:49.766Z,40.35
2023-06-27T11:27:49.754Z,40.34
2023-06-27T11:28:49.778Z,40.33
2023-06-27T11:29:52.721Z,40.29
2023-06-27T11:30:49.807Z,40.33
2023-06-27T11:31:49.814Z,40.33
2023-06-27T11:32:49.781Z,40.31
2023-06-27T11:33:49.800Z,40.30
2023-06-27T11:34:49.810Z,40.32
2023-06-27T11:35:49.763Z,40.28
2023-06-27T11:36:49.735Z,40.27
2023-06-27T11:37:49.715Z,40.26
2023-06-27T11:38:49.734Z,40.24
2023-06-27T11:39:49.703Z,40.22
2023-06-27T11:40:49.686Z,40.23
2023-06-27T11:41:49.680Z,40.22
2023-06-27T11:42:49.666Z,40.19
2023-06-27T11:43:49.667Z,40.22
2023-06-27T11:44:49.663Z,40.19
2023-06-27T11:45:49.675Z,40.14
2023-06-27T11:46:49.652Z,40.12
2023-06-27T11:47:49.674Z,40.10
2023-06-27T11:48:49.649Z,40.11
2023-06-27T11:49:49.783Z,40.06
2023-06-27T11:50:49.634Z,40.10
2023-06-27T11:51:49.625Z,40.07
2023-06-27T11:52:49.608Z,40.06
2023-06-27T11:53:49.598Z,40.04
2023-06-27T11:54:49.593Z,40.01
2023-06-27T11:55:54.024Z,40.03
2023-06-27T11:56:50.584Z,40.03
2023-06-27T11:57:49.576Z,40.02
2023-06-27T11:58:49.575Z,39.98
2023-06-27T11:59:49.578Z,39.98
2023-06-27T12:00:49.591Z,39.98
2023-06-27T12:01:49.673Z,39.41
2023-06-27T12:02:49.577Z,39.42
2023-06-27T12:03:49.768Z,38.05
2023-06-27T12:04:49.533Z,37.54
2023-06-27T12:05:49.528Z,37.42
2023-06-27T12:06:49.566Z,37.27
2023-06-27T12:07:49.514Z,37.29
2023-06-27T12:08:49.528Z,38.38
2023-06-27T12:09:49.565Z,38.91
2023-06-27T12:10:49.486Z,38.36
2023-06-27T12:11:49.489Z,37.77
2023-06-27T12:12:49.479Z,37.82
2023-06-27T12:13:49.552Z,38.06
2023-06-27T12:14:49.463Z,38.03
2023-06-27T12:15:49.462Z,38.07
2023-06-27T12:16:49.441Z,38.34
2023-06-27T12:17:49.465Z,38.54
2023-06-27T12:18:49.456Z,38.80
2023-06-27T12:19:49.432Z,38.91
2023-06-27T12:20:49.419Z,39.01
2023-06-27T12:21:49.419Z,38.97
2023-06-27T12:22:49.415Z,39.01
2023-06-27T12:23:49.401Z,38.94
2023-06-27T12:24:49.455Z,38.96
2023-06-27T12:25:49.411Z,38.93
2023-06-27T12:26:49.389Z,38.92
2023-06-27T12:27:49.386Z,38.92
2023-06-27T12:28:49.447Z,38.91
2023-06-27T12:29:49.367Z,38.93
2023-06-27T12:30:49.395Z,38.92
2023-06-27T12:31:49.361Z,38.90
2023-06-27T12:32:49.377Z,38.94
2023-06-27T12:33:49.348Z,38.94
2023-06-27T12:34:49.353Z,38.97
2023-06-27T12:35:49.332Z,38.98
2023-06-27T12:36:52.243Z,39.02
2023-06-27T12:37:49.378Z,38.99
2023-06-27T12:38:49.308Z,39.01
2023-06-27T12:39:49.308Z,39.04
2023-06-27T12:40:49.293Z,39.04
2023-06-27T12:41:49.377Z,39.04
2023-06-27T12:42:49.289Z,39.05
2023-06-27T12:43:49.275Z,39.06
2023-06-27T12:44:49.274Z,39.06
2023-06-27T12:45:49.267Z,39.06
2023-06-27T12:46:49.249Z,39.04
2023-06-27T12:47:49.283Z,39.00
2023-06-27T12:48:49.239Z,38.94
2023-06-27T12:49:49.250Z,38.88
2023-06-27T12:50:49.228Z,38.92
2023-06-27T12:51:49.266Z,38.92
2023-06-27T12:52:49.299Z,38.88
2023-06-27T12:53:49.318Z,38.87
2023-06-27T12:54:49.195Z,38.76
2023-06-27T12:55:49.189Z,38.72